createdAt,value
2022-12-01T00:01:13.837Z,9.57
2022-12-01T00:03:40.610Z,9.37
2022-12-01T00:06:11.093Z,9.13
2022-12-01T00:08:38.447Z,9.50
2022-12-01T00:11:07.420Z,9.30
2022-12-01T00:13:34.867Z,9.93
2022-12-01T00:16:13.128Z,10.23
2022-12-01T00:18:39.953Z,9.97
2022-12-01T00:21:07.078Z,9.27
2022-12-01T00:23:33.727Z,9.23
2022-12-01T00:26:05.071Z,8.77
2022-12-01T00:28:31.821Z,9.13
2022-12-01T00:30:58.849Z,8.83
2022-12-01T00:33:25.482Z,8.63
2022-12-01T00:35:58.815Z,8.93
2022-12-01T00:38:25.640Z,9.13
2022-12-01T00:40:52.342Z,9.23
2022-12-01T00:43:18.992Z,9.33
2022-12-01T00:45:45.714Z,9.53
2022-12-01T00:48:12.638Z,9.07
2022-12-01T00:50:39.315Z,9.43
2022-12-01T00:53:05.954Z,8.90
2022-12-01T00:55:32.657Z,9.03
2022-12-01T00:57:59.331Z,8.60
2022-12-01T01:00:26.449Z,9.17
2022-12-01T01:02:53.205Z,9.10
2022-12-01T01:05:20.066Z,8.70
2022-12-01T01:07:46.795Z,8.07
2022-12-01T01:10:13.522Z,8.23
2022-12-01T01:12:40.201Z,8.43
2022-12-01T01:15:07.584Z,7.83
2022-12-01T01:17:34.767Z,8.83
2022-12-01T01:20:01.990Z,7.87
2022-12-01T01:22:28.647Z,7.23
2022-12-01T01:24:55.367Z,7.73
2022-12-01T01:27:22.074Z,7.73
2022-12-01T01:29:49.008Z,7.23
2022-12-01T01:32:15.815Z,7.50
2022-12-01T01:34:42.464Z,7.10
2022-12-01T01:37:09.160Z,7.40
2022-12-01T01:39:35.841Z,7.67
2022-12-01T01:42:02.493Z,8.40
2022-12-01T01:44:48.266Z,7.47
2022-12-01T01:47:27.535Z,7.10
2022-12-01T01:49:56.818Z,7.33
2022-12-01T01:52:23.768Z,7.03
2022-12-01T01:54:53.960Z,7.57
2022-12-01T01:57:28.817Z,7.70
2022-12-01T02:00:01.769Z,7.17
2022-12-01T02:02:44.186Z,7.50
2022-12-01T02:05:33.711Z,7.17
2022-12-01T02:08:01.815Z,8.00
2022-12-01T02:10:49.849Z,7.77
2022-12-01T02:13:59.164Z,7.63
2022-12-01T02:16:40.992Z,7.70
2022-12-01T02:20:02.054Z,7.70
2022-12-01T02:22:35.477Z,8.00
2022-12-01T02:25:32.805Z,8.07
2022-12-01T02:28:02.415Z,8.67
2022-12-01T02:30:41.016Z,8.13
2022-12-01T02:33:23.005Z,8.40
2022-12-01T02:36:02.591Z,7.93
2022-12-01T02:38:48.083Z,7.20
2022-12-01T02:41:39.220Z,8.43
2022-12-01T02:44:32.835Z,8.00
2022-12-01T02:47:19.464Z,8.53
2022-12-01T02:49:51.689Z,8.03
2022-12-01T02:52:20.214Z,7.77
2022-12-01T02:54:48.413Z,7.80
2022-12-01T02:57:16.658Z,7.63
2022-12-01T02:59:47.752Z,7.57
2022-12-01T03:02:24.518Z,7.77
2022-12-01T03:05:01.984Z,7.93
2022-12-01T03:07:37.635Z,7.50
2022-12-01T03:10:24.161Z,8.23
2022-12-01T03:13:18.649Z,7.83
2022-12-01T03:16:03.803Z,7.00
2022-12-01T03:18:39.887Z,7.60
2022-12-01T03:21:52.062Z,7.07
2022-12-01T03:24:23.077Z,6.90
2022-12-01T03:26:56.983Z,6.70
2022-12-01T03:29:30.734Z,6.37
2022-12-01T03:32:06.267Z,6.40
2022-12-01T03:34:37.401Z,6.50
2022-12-01T03:37:13.977Z,6.50
2022-12-01T03:39:43.555Z,6.67
2022-12-01T03:42:14.353Z,6.57
2022-12-01T03:44:47.898Z,6.83
2022-12-01T03:47:22.042Z,6.93
2022-12-01T03:49:51.704Z,6.47
2022-12-01T03:52:41.221Z,7.43
2022-12-01T03:55:24.754Z,7.13
2022-12-01T03:58:10.426Z,7.50
2022-12-01T04:00:37.920Z,7.27
2022-12-01T04:03:05.344Z,7.47
2022-12-01T04:05:34.519Z,7.53
2022-12-01T04:08:02.485Z,7.27
2022-12-01T04:10:29.522Z,6.97
2022-12-01T04:12:59.583Z,8.07
2022-12-01T04:15:27.649Z,7.90
2022-12-01T04:17:54.649Z,7.37
2022-12-01T04:20:21.885Z,8.10
2022-12-01T04:22:48.824Z,7.83
2022-12-01T04:25:16.035Z,8.07
2022-12-01T04:27:42.960Z,7.67
2022-12-01T04:30:11.101Z,7.47
2022-12-01T04:32:43.357Z,7.57
2022-12-01T04:35:12.177Z,6.30
2022-12-01T04:37:39.698Z,6.50
2022-12-01T04:40:07.271Z,7.37
2022-12-01T04:42:34.218Z,7.20
2022-12-01T04:45:01.147Z,6.40
2022-12-01T04:47:27.999Z,5.80
2022-12-01T04:49:54.876Z,6.50
2022-12-01T04:52:21.805Z,6.57
2022-12-01T04:54:48.657Z,6.27
2022-12-01T04:57:15.575Z,6.30
2022-12-01T04:59:42.463Z,6.57
2022-12-01T05:02:09.289Z,6.60
2022-12-01T05:04:38.723Z,5.73
2022-12-01T05:07:06.085Z,6.20
2022-12-01T05:09:32.783Z,6.30
2022-12-01T05:11:59.490Z,6.43
2022-12-01T05:14:26.283Z,6.23
2022-12-01T05:16:58.037Z,6.53
2022-12-01T05:19:43.341Z,5.80
2022-12-01T05:22:10.025Z,6.33
2022-12-01T05:24:40.129Z,6.47
2022-12-01T05:27:06.799Z,6.20
2022-12-01T05:29:33.966Z,6.00
2022-12-01T05:32:03.774Z,6.37
2022-12-01T05:34:30.571Z,7.07
2022-12-01T05:36:57.199Z,6.93
2022-12-01T05:39:23.923Z,6.77
2022-12-01T05:41:50.528Z,6.63
2022-12-01T05:44:17.145Z,6.80
2022-12-01T05:46:43.828Z,6.63
2022-12-01T05:49:10.479Z,6.07
2022-12-01T05:51:37.122Z,7.07
2022-12-01T05:54:03.802Z,6.77
2022-12-01T05:56:30.531Z,6.87
2022-12-01T05:58:57.185Z,6.43
2022-12-01T06:01:23.867Z,6.37
2022-12-01T06:03:50.619Z,6.43
2022-12-01T06:06:17.487Z,5.50
2022-12-01T06:08:44.147Z,6.47
2022-12-01T06:11:10.833Z,5.90
2022-12-01T06:13:37.664Z,6.27
2022-12-01T06:16:06.339Z,5.90
2022-12-01T06:18:35.803Z,5.57
2022-12-01T06:21:03.070Z,6.17
2022-12-01T06:23:30.818Z,5.80
2022-12-01T06:25:58.093Z,5.23
2022-12-01T06:28:24.768Z,4.97
2022-12-01T06:30:51.510Z,6.10
2022-12-01T06:33:18.223Z,6.03
2022-12-01T06:35:44.941Z,5.33
2022-12-01T06:38:11.640Z,5.50
2022-12-01T06:40:38.380Z,5.47
2022-12-01T06:43:05.633Z,5.80
2022-12-01T06:45:32.368Z,5.23
2022-12-01T06:47:59.135Z,8.70
2022-12-01T06:50:26.199Z,10.03
2022-12-01T06:52:53.109Z,5.63
2022-12-01T06:55:19.905Z,5.07
2022-12-01T06:57:46.817Z,5.03
2022-12-01T07:00:14.782Z,5.70
2022-12-01T07:02:42.138Z,15.43
2022-12-01T07:05:09.232Z,10.37
2022-12-01T07:07:39.412Z,7.30
2022-12-01T07:10:08.636Z,6.43
2022-12-01T07:12:35.645Z,6.07
2022-12-01T07:15:03.110Z,6.20
2022-12-01T07:17:30.072Z,6.67
2022-12-01T07:19:57.444Z,6.40
2022-12-01T07:22:29.499Z,6.10
2022-12-01T07:24:59.038Z,6.43
2022-12-01T07:27:29.693Z,5.83
2022-12-01T07:29:56.351Z,6.00
2022-12-01T07:32:23.079Z,5.80
2022-12-01T07:34:49.721Z,6.20
2022-12-01T07:37:16.369Z,5.93
2022-12-01T07:39:43.061Z,6.13
2022-12-01T07:42:09.791Z,6.57
2022-12-01T07:44:36.484Z,7.53
2022-12-01T07:47:03.242Z,6.80
2022-12-01T07:49:29.895Z,8.00
2022-12-01T07:51:56.585Z,8.23
2022-12-01T07:54:23.262Z,7.50
2022-12-01T07:56:49.966Z,7.97
2022-12-01T07:59:16.697Z,7.97
2022-12-01T08:01:44.881Z,7.53
2022-12-01T08:04:12.029Z,7.43
2022-12-01T08:06:38.758Z,7.03
2022-12-01T08:09:05.841Z,8.97
2022-12-01T08:11:34.734Z,6.63
2022-12-01T08:14:01.972Z,11.57
2022-12-01T08:16:28.794Z,8.83
2022-12-01T08:18:55.622Z,8.00
2022-12-01T08:21:24.063Z,7.73
2022-12-01T08:23:57.997Z,7.50
2022-12-01T08:26:25.768Z,8.20
2022-12-01T08:28:52.673Z,8.67
2022-12-01T08:31:22.607Z,9.37
2022-12-01T08:33:50.540Z,8.90
2022-12-01T08:36:18.205Z,9.03
2022-12-01T08:38:45.796Z,7.90
2022-12-01T08:41:13.241Z,9.57
2022-12-01T08:43:57.193Z,8.27
2022-12-01T08:46:26.822Z,8.20
2022-12-01T08:48:54.934Z,9.07
2022-12-01T08:51:21.709Z,8.67
2022-12-01T08:53:49.740Z,7.90
2022-12-01T08:56:22.586Z,7.97
2022-12-01T08:58:50.260Z,8.00
2022-12-01T09:01:18.098Z,8.20
2022-12-01T09:03:44.875Z,7.40
2022-12-01T09:06:15.285Z,6.93
2022-12-01T09:08:42.418Z,7.70
2022-12-01T09:11:14.929Z,6.13
2022-12-01T09:13:42.505Z,6.77
2022-12-01T09:16:13.430Z,7.87
2022-12-01T09:18:40.732Z,8.53
2022-12-01T09:21:20.637Z,7.53
2022-12-01T09:23:48.085Z,8.17
2022-12-01T09:26:18.632Z,7.43
2022-12-01T09:28:47.017Z,6.70
2022-12-01T09:31:14.754Z,6.97
2022-12-01T09:33:42.198Z,8.20
2022-12-01T09:36:10.166Z,7.63
2022-12-01T09:38:37.971Z,8.73
2022-12-01T09:41:09.027Z,8.00
2022-12-01T09:43:42.701Z,7.33
2022-12-01T09:46:15.946Z,7.60
2022-12-01T09:48:48.236Z,8.70
2022-12-01T09:51:17.095Z,7.50
2022-12-01T09:53:45.073Z,7.67
2022-12-01T09:56:20.242Z,7.90
2022-12-01T09:58:51.361Z,9.13
2022-12-01T10:01:25.855Z,7.97
2022-12-01T10:03:59.087Z,9.07
2022-12-01T10:06:42.339Z,9.43
2022-12-01T10:09:17.892Z,8.43
2022-12-01T10:11:46.700Z,9.57
2022-12-01T10:14:20.026Z,9.30
2022-12-01T10:17:16.464Z,8.70
2022-12-01T10:20:04.287Z,9.50
2022-12-01T10:22:45.935Z,10.53
2022-12-01T10:25:51.664Z,9.50
2022-12-01T10:28:27.543Z,9.77
2022-12-01T10:31:01.780Z,11.07
2022-12-01T10:33:45.434Z,10.60
2022-12-01T10:36:12.161Z,10.87
2022-12-01T10:38:39.270Z,11.87
2022-12-01T10:41:12.246Z,11.33
2022-12-01T10:43:50.519Z,12.50
2022-12-01T10:46:39.609Z,11.23
2022-12-01T10:49:12.154Z,11.43
2022-12-01T10:51:50.897Z,12.10
2022-12-01T10:54:18.757Z,12.53
2022-12-01T10:56:48.907Z,12.57
2022-12-01T10:59:26.765Z,12.60
2022-12-01T11:01:54.576Z,13.23
2022-12-01T11:04:33.625Z,13.97
2022-12-01T11:07:01.920Z,14.30
2022-12-01T11:09:30.604Z,13.97
2022-12-01T11:12:00.389Z,13.60
2022-12-01T11:14:41.179Z,13.43
2022-12-01T11:17:39.839Z,14.10
2022-12-01T11:20:39.591Z,14.00
2022-12-01T11:23:18.195Z,14.43
2022-12-01T11:25:57.283Z,14.03
2022-12-01T11:28:24.910Z,14.70
2022-12-01T11:31:00.544Z,16.40
2022-12-01T11:33:29.282Z,15.13
2022-12-01T11:35:56.338Z,14.90
2022-12-01T11:38:30.798Z,13.93
2022-12-01T11:40:58.484Z,14.07
2022-12-01T11:43:32.054Z,13.93
2022-12-01T11:46:03.784Z,13.90
2022-12-01T11:48:34.507Z,13.70
2022-12-01T11:51:17.766Z,15.50
2022-12-01T11:53:44.695Z,14.53
2022-12-01T11:56:23.393Z,13.83
2022-12-01T11:59:03.472Z,14.27
2022-12-01T12:01:45.447Z,15.33
2022-12-01T12:04:21.159Z,14.87
2022-12-01T12:07:09.419Z,15.83
2022-12-01T12:09:54.700Z,15.13
2022-12-01T12:12:36.151Z,14.13
2022-12-01T12:15:16.245Z,15.57
2022-12-01T12:17:49.419Z,14.83
2022-12-01T12:20:26.413Z,15.73
2022-12-01T12:23:10.156Z,14.77
2022-12-01T12:26:13.838Z,14.37
2022-12-01T12:29:07.077Z,14.37
2022-12-01T12:32:07.259Z,15.40
2022-12-01T12:35:04.944Z,14.90
2022-12-01T12:37:39.866Z,15.03
2022-12-01T12:40:09.466Z,14.50
2022-12-01T12:43:13.057Z,13.33
2022-12-01T12:46:02.368Z,14.37
2022-12-01T12:49:26.420Z,12.97
2022-12-01T12:52:08.050Z,12.87
2022-12-01T12:54:50.582Z,12.73
2022-12-01T12:57:35.210Z,13.00
2022-12-01T13:00:07.843Z,12.83
2022-12-01T13:02:42.748Z,12.20
2022-12-01T13:05:18.953Z,12.03
2022-12-01T13:07:56.350Z,11.77
2022-12-01T13:10:26.672Z,11.27
2022-12-01T13:12:59.251Z,10.60
2022-12-01T13:15:27.266Z,11.00
2022-12-01T13:18:21.246Z,9.80
2022-12-01T13:20:49.971Z,10.10
2022-12-01T13:23:20.042Z,10.17
2022-12-01T13:25:51.647Z,9.40
2022-12-01T13:28:26.279Z,9.27
2022-12-01T13:30:59.366Z,10.63
2022-12-01T13:33:26.634Z,9.03
2022-12-01T13:36:21.294Z,8.73
2022-12-01T13:38:42.027Z,9.67
2022-12-01T13:41:17.864Z,9.87
2022-12-01T13:43:57.840Z,8.83
2022-12-01T13:46:35.187Z,9.43
2022-12-01T13:49:03.662Z,8.90
2022-12-01T13:52:09.177Z,9.50
2022-12-01T13:54:37.484Z,8.97
2022-12-01T13:57:10.743Z,10.10
2022-12-01T13:59:39.118Z,9.77
2022-12-01T14:02:17.037Z,9.70
2022-12-01T14:04:43.974Z,10.07
2022-12-01T14:07:21.164Z,10.33
2022-12-01T14:09:51.106Z,10.63
2022-12-01T14:12:25.470Z,9.80
2022-12-01T14:14:59.803Z,10.40
2022-12-01T14:17:30.942Z,10.50
2022-12-01T14:20:20.491Z,9.53
2022-12-01T14:23:03.753Z,10.23
2022-12-01T14:25:31.662Z,11.00
2022-12-01T14:28:04.450Z,10.33
2022-12-01T14:30:49.981Z,11.10
2022-12-01T14:33:47.749Z,10.10
2022-12-01T14:36:23.774Z,10.20
2022-12-01T14:38:59.856Z,9.93
2022-12-01T14:42:39.311Z,10.77
2022-12-01T14:45:11.778Z,10.10
2022-12-01T14:48:02.460Z,10.57
2022-12-01T14:50:43.559Z,11.57
2022-12-01T14:53:30.720Z,11.77
2022-12-01T14:56:02.144Z,11.27
2022-12-01T14:58:31.504Z,11.10
2022-12-01T15:01:07.371Z,11.43
2022-12-01T15:04:00.331Z,11.23
2022-12-01T15:06:30.076Z,10.93
2022-12-01T15:09:34.027Z,15.27
2022-12-01T15:12:06.818Z,11.00
2022-12-01T15:14:34.809Z,11.77
2022-12-01T15:17:05.068Z,11.60
2022-12-01T15:19:40.211Z,11.03
2022-12-01T15:22:09.935Z,12.30
2022-12-01T15:24:36.733Z,11.90
2022-12-01T15:27:04.294Z,11.73
2022-12-01T15:29:45.460Z,13.03
2022-12-01T15:32:16.957Z,12.17
2022-12-01T15:34:46.973Z,12.97
2022-12-01T15:37:15.678Z,12.73
2022-12-01T15:39:49.648Z,12.53
2022-12-01T15:42:38.266Z,11.63
2022-12-01T15:45:14.242Z,13.90
2022-12-01T15:47:40.895Z,12.30
2022-12-01T15:50:41.273Z,13.30
2022-12-01T15:53:26.595Z,12.17
2022-12-01T15:55:58.751Z,14.10
2022-12-01T15:58:32.765Z,13.90
2022-12-01T16:01:02.260Z,15.70
2022-12-01T16:03:29.778Z,17.30
2022-12-01T16:05:57.724Z,15.60
2022-12-01T16:08:28.591Z,15.80
2022-12-01T16:11:14.412Z,15.10
2022-12-01T16:13:57.066Z,16.30
2022-12-01T16:16:37.748Z,14.03
2022-12-01T16:19:23.851Z,15.17
2022-12-01T16:22:05.064Z,18.03
2022-12-01T16:24:43.213Z,14.57
2022-12-01T16:27:23.879Z,14.60
2022-12-01T16:29:54.635Z,13.87
2022-12-01T16:32:21.902Z,13.90
2022-12-01T16:34:51.384Z,13.47
2022-12-01T16:37:18.385Z,12.47
2022-12-01T16:39:45.169Z,14.57
2022-12-01T16:42:14.348Z,13.80
2022-12-01T16:44:42.578Z,12.97
2022-12-01T16:47:25.588Z,12.50
2022-12-01T16:49:52.984Z,12.63
2022-12-01T16:55:33.617Z,13.27
2022-12-01T16:58:00.312Z,12.50
2022-12-01T17:00:29.327Z,11.77
2022-12-01T17:02:57.145Z,12.33
2022-12-01T17:05:24.231Z,14.17
2022-12-01T17:07:51.778Z,13.57
2022-12-01T17:10:20.501Z,13.03
2022-12-01T17:12:47.221Z,12.73
2022-12-01T17:15:14.886Z,12.80
2022-12-01T17:17:41.799Z,10.57
2022-12-01T17:20:09.255Z,11.13
2022-12-01T17:22:36.817Z,11.40
2022-12-01T17:25:04.234Z,11.50
2022-12-01T17:27:32.185Z,11.97
2022-12-01T17:30:00.095Z,11.77
2022-12-01T17:32:28.166Z,12.40
2022-12-01T17:34:54.968Z,12.13
2022-12-01T17:37:21.904Z,13.90
2022-12-01T17:39:50.197Z,15.53
2022-12-01T17:42:17.227Z,14.37
2022-12-01T17:44:43.966Z,13.43
2022-12-01T17:47:11.414Z,14.27
2022-12-01T17:49:38.797Z,15.50
2022-12-01T17:52:06.988Z,15.03
2022-12-01T17:54:33.918Z,14.67
2022-12-01T17:57:00.907Z,14.10
2022-12-01T17:59:27.673Z,14.93
2022-12-01T18:01:54.554Z,13.20
2022-12-01T18:04:21.257Z,14.37
2022-12-01T18:06:53.537Z,15.23
2022-12-01T18:09:21.337Z,13.33
2022-12-01T18:11:48.463Z,16.53
2022-12-01T18:14:17.807Z,12.57
2022-12-01T18:16:45.333Z,12.60
2022-12-01T18:19:12.122Z,12.73
2022-12-01T18:21:39.256Z,12.33
2022-12-01T18:24:08.805Z,13.67
2022-12-01T18:26:37.174Z,12.97
2022-12-01T18:29:07.351Z,12.20
2022-12-01T18:31:35.035Z,12.30
2022-12-01T18:34:04.905Z,12.43
2022-12-01T18:36:33.765Z,13.07
2022-12-01T18:39:02.426Z,13.30
2022-12-01T18:41:29.331Z,13.53
2022-12-01T18:43:56.122Z,12.77
2022-12-01T18:46:23.199Z,12.13
2022-12-01T18:48:52.413Z,13.67
2022-12-01T18:51:20.336Z,13.33
2022-12-01T18:53:47.288Z,13.23
2022-12-01T18:56:15.415Z,13.87
2022-12-01T18:58:42.777Z,13.57
2022-12-01T19:01:46.414Z,14.03
2022-12-01T19:04:14.684Z,15.70
2022-12-01T19:06:42.858Z,14.60
2022-12-01T19:09:12.330Z,14.47
2022-12-01T19:11:40.797Z,14.93
2022-12-01T19:14:11.952Z,14.10
2022-12-01T19:16:39.855Z,14.23
2022-12-01T19:19:09.933Z,13.77
2022-12-01T19:21:36.923Z,14.30
2022-12-01T19:24:03.764Z,15.23
2022-12-01T19:26:30.412Z,14.60
2022-12-01T19:28:59.301Z,14.97
2022-12-01T19:31:26.214Z,14.50
2022-12-01T19:33:54.614Z,15.17
2022-12-01T19:36:24.364Z,14.23
2022-12-01T19:38:51.977Z,13.63
2022-12-01T19:41:24.972Z,14.33
2022-12-01T19:43:52.976Z,14.33
2022-12-01T19:46:22.295Z,16.17
2022-12-01T19:48:57.876Z,15.33
2022-12-01T19:51:35.090Z,16.50
2022-12-01T19:54:03.815Z,16.00
2022-12-01T19:56:31.503Z,18.13
2022-12-01T19:58:59.167Z,22.33
2022-12-01T20:01:26.703Z,14.77
2022-12-01T20:03:54.513Z,15.10
2022-12-01T20:06:27.727Z,15.03
2022-12-01T20:08:56.732Z,20.43
2022-12-01T20:11:24.108Z,17.63
2022-12-01T20:15:08.071Z,15.17
2022-12-01T20:17:36.502Z,15.53
2022-12-01T20:20:04.533Z,15.63
2022-12-01T20:22:32.663Z,15.90
2022-12-01T20:24:59.588Z,15.37
2022-12-01T20:27:27.557Z,14.33
2022-12-01T20:29:54.929Z,15.27
2022-12-01T20:32:23.756Z,13.07
2022-12-01T20:34:51.412Z,15.03
2022-12-01T20:37:18.235Z,18.93
2022-12-01T20:39:44.941Z,14.17
2022-12-01T20:42:11.595Z,14.47
2022-12-01T20:44:39.947Z,14.50
2022-12-01T20:47:06.806Z,14.40
2022-12-01T20:49:33.586Z,14.10
2022-12-01T20:52:00.281Z,14.60
2022-12-01T20:54:29.194Z,13.87
2022-12-01T20:57:00.187Z,13.73
2022-12-01T20:59:28.300Z,15.40
2022-12-01T21:01:55.316Z,14.43
2022-12-01T21:04:22.147Z,15.00
2022-12-01T21:06:49.956Z,14.37
2022-12-01T21:09:17.962Z,14.83
2022-12-01T21:12:08.666Z,15.53
2022-12-01T21:14:47.312Z,13.80
2022-12-01T21:17:19.820Z,14.67
2022-12-01T21:20:07.736Z,14.47
2022-12-01T21:22:36.095Z,14.97
2022-12-01T21:25:12.452Z,15.13
2022-12-01T21:27:39.190Z,15.37
2022-12-01T21:30:16.973Z,15.63
2022-12-01T21:32:44.729Z,15.80
2022-12-01T21:35:25.257Z,15.97
2022-12-01T21:38:00.418Z,16.47
2022-12-01T21:40:28.401Z,17.00
2022-12-01T21:42:56.541Z,16.57
2022-12-01T21:45:31.994Z,17.37
2022-12-01T21:48:15.208Z,17.20
2022-12-01T21:50:42.038Z,17.93
2022-12-01T21:53:20.020Z,17.83
2022-12-01T21:55:47.615Z,18.67
2022-12-01T21:58:23.423Z,18.17
2022-12-01T22:00:52.317Z,16.10
2022-12-01T22:03:27.830Z,16.13
2022-12-01T22:06:29.878Z,16.37
2022-12-01T22:09:11.616Z,16.27
2022-12-01T22:11:38.368Z,16.73
2022-12-01T22:14:12.755Z,17.07
2022-12-01T22:16:44.015Z,14.73
2022-12-01T22:19:16.881Z,15.87
2022-12-01T22:21:48.792Z,13.63
2022-12-01T22:24:20.362Z,15.23
2022-12-01T22:26:50.669Z,14.80
2022-12-01T22:29:30.814Z,15.00
2022-12-01T22:32:12.548Z,14.23
2022-12-01T22:34:42.378Z,15.03
2022-12-01T22:37:20.491Z,14.63
2022-12-01T22:39:54.196Z,15.43
2022-12-01T22:42:37.335Z,14.40
2022-12-01T22:45:24.741Z,14.40
2022-12-01T22:47:56.219Z,14.40
2022-12-01T22:50:28.457Z,13.03
2022-12-01T22:53:16.886Z,14.07
2022-12-01T22:55:43.935Z,14.77
2022-12-01T22:58:22.608Z,14.27
2022-12-01T23:00:49.604Z,12.03
2022-12-01T23:03:16.510Z,13.27
2022-12-01T23:05:44.599Z,12.20
2022-12-01T23:08:19.775Z,11.57
2022-12-01T23:10:46.428Z,11.60
2022-12-01T23:13:20.368Z,11.30
2022-12-01T23:15:50.622Z,11.50
2022-12-01T23:18:25.363Z,10.87
2022-12-01T23:20:57.259Z,10.87
2022-12-01T23:23:33.151Z,10.27
2022-12-01T23:26:05.938Z,10.30
2022-12-01T23:28:35.633Z,10.17
2022-12-01T23:31:02.605Z,10.27
2022-12-01T23:33:32.326Z,10.50
2022-12-01T23:36:01.953Z,10.13
2022-12-01T23:38:38.297Z,9.37
2022-12-01T23:41:26.605Z,9.80
2022-12-01T23:44:03.532Z,9.80
2022-12-01T23:46:30.256Z,9.43
2022-12-01T23:49:01.772Z,9.80
2022-12-01T23:51:31.830Z,9.03
2022-12-01T23:54:06.175Z,9.67
2022-12-01T23:56:33.030Z,10.07
2022-12-01T23:59:00.891Z,9.97
